Flight Track Log - Related Links

Times and Time Zones

All times are in EDT time to prevent confusion due to time zone crossing. See the LYM1725 flight status page for this flight to view local times or setup timezone preferences in your user account.

Time Position Orientation Groundspeed Altitude Reporting Facility
EDT Latitude Longitude Course Direction KTS MPH feet Rate Location/Type
Thu 08:53:30 AM 39.9000 -104.6833 346° North 199 229 7,400  Level Denver TRACON
Thu 08:54:24 AM 39.9500 -104.7000 346° North 215 247 8,900 1,697 Climbing Denver TRACON
Thu 08:55:09 AM 39.9925 -104.7239 337° Northwest 212 244 10,200 2,057 Climbing Denver Center
Thu 08:56:09 AM 40.0506 -104.7514 340° North 207 238 12,500 1,785 Climbing Denver Center
Thu 08:57:10 AM 40.1050 -104.7544 358° North 200 230 13,800 1,180 Climbing Denver Center
Thu 08:58:11 AM 40.1642 -104.7486 North 213 245 14,900 1,328 Climbing Denver Center
Thu 08:59:12 AM 40.2233 -104.7425 North 213 245 16,500 1,377 Climbing Denver Center
Thu 09:00:13 AM 40.2744 -104.7744 335° Northwest 209 241 17,700 934 Climbing Denver Center
Thu 09:01:14 AM 40.3306 -104.8081 335° Northwest 207 238 18,400 885 Climbing Denver Center
Thu 09:02:15 AM 40.3839 -104.8392 336° Northwest 209 241 19,500 738 Climbing Denver Center
Thu 09:03:16 AM 40.4378 -104.8717 335° Northwest 214 246 19,900 224 Climbing Denver Center
Thu 09:04:29 AM 40.5147 -104.9197 335° Northwest 256 295 20,000 45 Climbing Denver Center
Thu 09:05:30 AM 40.5833 -104.9589 337° Northwest 268 308 20,000  Level Denver Center
Thu 09:06:31 AM 40.6533 -105.0053 333° Northwest 280 322 20,000  Level Denver Center
Thu 09:07:32 AM 40.7242 -105.0503 334° Northwest 284 327 20,000  Level Denver Center
Thu 09:08:33 AM 40.7983 -105.0967 335° Northwest 280 322 20,000  Level Denver Center
Thu 09:09:34 AM 40.8511 -105.1747 312° West 286 329 20,000  Level Denver Center
Thu 09:10:35 AM 40.9128 -105.2628 313° West 292 336 20,000 -50 Level Denver Center
Thu 09:11:35 AM 40.9647 -105.3425 311° West 294 338 19,900  Descending Denver Center
Thu 09:12:36 AM 41.0181 -105.4208 312° West 297 342 20,000 49 Climbing Denver Center
Thu 09:13:37 AM 41.0797 -105.5072 313° West 293 337 20,000  Level Denver Center
Thu 09:14:38 AM 41.1319 -105.5811 313° West 288 331 20,000 -49 Level Denver Center
Thu 09:15:39 AM 41.1856 -105.6586 313° West 293 337 19,900  Descending Denver Center
Thu 09:16:40 AM 41.2472 -105.7469 313° West 293 337 20,000  Climbing Denver Center
Thu 09:17:41 AM 41.3011 -105.8239 313° West 296 341 19,900  Descending Denver Center
Thu 09:18:42 AM 41.3547 -105.9000 313° West 296 341 20,000 49 Climbing Denver Center
Thu 09:19:43 AM 41.4150 -105.9875 313° West 289 333 20,000  Level Denver Center
Thu 09:20:44 AM 41.4672 -106.0622 313° West 288 331 20,000  Level Denver Center
Thu 09:21:57 AM 41.5208 -106.1361 314° West 289 333 20,000  Level Denver Center
Thu 09:22:59 AM 41.5903 -106.2372 313° West 289 333 20,000  Level Denver Center
Thu 09:24:00 AM 41.6419 -106.3128 312° West 288 331 20,000  Level Denver Center
Thu 09:25:01 AM 41.7031 -106.4014 313° West 290 334 20,000 -49 Level Denver Center
Thu 09:26:02 AM 41.7558 -106.4744 314° West 286 329 19,900 49 Descending Denver Center
Thu 09:27:03 AM 41.8089 -106.5506 313° West 285 328 20,100  Climbing Denver Center
Thu 09:28:04 AM 41.8678 -106.6394 312° West 286 329 19,900 -49 Descending Denver Center
Thu 09:29:05 AM 41.9192 -106.7164 312° West 290 334 20,000 49 Climbing Denver Center
Thu 09:30:06 AM 41.9706 -106.7900 313° West 285 328 20,000 -45 Level Denver Center
Thu 09:31:19 AM 42.0297 -106.8792 312° West 286 329 19,900 -45 Descending Denver Center
Thu 09:32:20 AM 42.0903 -106.9697 312° West 290 334 19,900 49 Level Denver Center
Thu 09:33:21 AM 42.1492 -107.0589 312° West 286 329 20,000  Climbing Denver Center
Thu 09:34:22 AM 42.2022 -107.1367 313° West 294 338 19,900  Descending Denver Center
Thu 09:35:23 AM 42.2622 -107.2253 312° West 290 334 20,000  Climbing Denver Center
Thu 09:36:24 AM 42.3144 -107.2997 314° West 286 329 19,900 -295 Descending Denver Center
Thu 09:37:25 AM 42.3664 -107.3739 313° West 285 328 19,400 -829 Descending Denver Center
Thu 09:38:27 AM 42.4317 -107.4711 312° West 307 353 18,200 -878 Descending Denver Center
Thu 09:39:28 AM 42.4886 -107.5572 312° West 318 366 17,600 -779 Descending Denver Center
Thu 09:40:38 AM 42.5578 -107.6550 314° West 324 373 16,500 -962 Descending Salt Lake Center
Thu 09:41:39 AM 42.6211 -107.7564 310° West 327 376 15,500 -1,033 Descending Salt Lake Center
Thu 09:42:40 AM 42.6786 -107.8431 312° West 324 373 14,400 -878 Descending Salt Lake Center
Thu 09:43:42 AM 42.7431 -107.9456 311° West 322 371 13,700 -732 Descending Salt Lake Center
Thu 09:44:43 AM 42.7950 -108.0269 311° West 310 357 12,900 -934 Descending Salt Lake Center
Thu 09:45:44 AM 42.8475 -108.1086 311° West 297 342 11,800 -1,082 Descending Salt Lake Center

Login

Don't have an account? Register now (free) for customized features, flight alerts, and more!